Check out our new BloomSky Weather System.

Active alerts


No alerts


Thunder radar  blitzortung!


Rain radar more information rain snow radar


Visit our other weather sites:

Template documentation
and downloads

And another site



Weather Underground History page Text

Daily Summary for October 10, 2017 Units:  English    Metric   Both
« Previous Day
Next Day »
Daily Weekly Monthly Yearly Custom
  High: Low: Average:
Temperature: TemperatureF °F 67.3 °F 73.8 °F
Dew Point: DewpointF °F 55.6 °F 65.8 °F
Humidity: Humidity % 61 % 77 %
Wind Speed: WindSpeedMPH mph 0.0 mph 3.5 mph
Wind Gust: WindSpeedGustMPH mph - -
Wind:- - WNW
Pressure: PressureIn in 29.88 in -
Precipitation: 0.00 in    
Historical Graphs
 
 
Tabular Data for October 10, 2017
Time Temperature Dew Point Pressure Wind Wind Speed Wind Gust Humidity Rainfall Rate (Hourly)
TemperatureF °F DewpointF °F PressureIn in Calm     Humidity % HourlyPrecipIn in
00:03 78.6 °F 76.1 °F 29.88 in SSW 1.0 mph 2.0 mph 92 % 0.00 in
00:08 78.6 °F 76.1 °F 29.88 in SSE 1.0 mph 2.0 mph 92 % 0.00 in
00:13 78.4 °F 75.9 °F 29.88 in Calm   2.0 mph 92 % 0.00 in
00:18 78.4 °F 76.3 °F 29.88 in Calm   2.0 mph 93 % 0.00 in
00:23 78.1 °F 75.9 °F 29.88 in Calm   2.0 mph 93 % 0.00 in
00:28 77.7 °F 75.6 °F 29.89 in Calm   1.0 mph 93 % 0.00 in
00:33 77.5 °F 75.7 °F 29.88 in Calm     94 % 0.00 in
00:43 77.4 °F 75.6 °F 29.88 in Calm     94 % 0.00 in
00:48 77.4 °F 75.7 °F 29.88 in Calm     95 % 0.00 in
00:53 77.4 °F 75.7 °F 29.88 in Calm     95 % 0.00 in
00:58 77.4 °F 75.7 °F 29.88 in Calm     95 % 0.00 in
01:03 77.4 °F 75.7 °F 29.88 in Calm   1.0 mph 95 % 0.00 in
01:08 77.5 °F 75.9 °F 29.88 in Calm   1.0 mph 95 % 0.00 in
01:13 77.5 °F 75.9 °F 29.88 in Calm   1.0 mph 95 % 0.00 in
01:18 77.4 °F 75.7 °F 29.89 in Calm   1.0 mph 95 % 0.00 in
01:23 77.4 °F 75.7 °F 29.89 in Calm   1.0 mph 95 % 0.00 in
01:28 77.2 °F 75.6 °F 29.89 in Calm   1.0 mph 95 % 0.00 in
01:33 77.0 °F 75.4 °F 29.88 in Calm     95 % 0.00 in
01:38 77.2 °F 75.9 °F 29.88 in SE 1.0 mph 1.0 mph 96 % 0.00 in
01:43 77.2 °F 75.9 °F 29.88 in SE 1.0 mph 2.0 mph 96 % 0.00 in
01:48 77.2 °F 75.9 °F 29.88 in Calm   2.0 mph 96 % 0.00 in
01:53 77.0 °F 75.7 °F 29.89 in Calm   2.0 mph 96 % 0.00 in
01:58 77.2 °F 75.9 °F 29.89 in Calm   2.0 mph 96 % 0.00 in
02:03 76.8 °F 75.2 °F 29.89 in Calm   1.0 mph 95 % 0.00 in
02:08 76.6 °F 75.4 °F 29.89 in South 1.0 mph 1.0 mph 96 % 0.00 in
02:13 76.8 °F 75.6 °F 29.89 in South 1.0 mph 1.0 mph 96 % 0.00 in
02:19 76.6 °F 75.4 °F 29.89 in Calm   1.0 mph 96 % 0.00 in
02:24 76.6 °F 75.4 °F 29.89 in Calm   1.0 mph 96 % 0.00 in
02:29 76.5 °F 75.2 °F 29.89 in Calm   1.0 mph 96 % 0.00 in
02:34 76.3 °F 75.0 °F 29.89 in Calm   1.0 mph 96 % 0.00 in
02:39 76.3 °F 75.0 °F 29.89 in Calm   1.0 mph 96 % 0.00 in
02:42 76.1 °F 75.2 °F 29.89 in Calm   1.0 mph 97 % 0.00 in
02:47 75.9 °F 75.0 °F 29.89 in Calm     97 % 0.00 in
02:52 75.7 °F 74.8 °F 29.89 in Calm     97 % 0.00 in
02:57 75.6 °F 74.7 °F 29.89 in Calm     97 % 0.00 in
03:02 75.6 °F 74.7 °F 29.89 in Calm     97 % 0.00 in
03:07 75.6 °F 74.7 °F 29.90 in SW 1.0 mph 1.0 mph 97 % 0.00 in
03:12 75.6 °F 75.0 °F 29.90 in West 1.0 mph 1.0 mph 98 % 0.00 in
03:17 75.7 °F 75.2 °F 29.90 in WNW 1.0 mph 1.0 mph 98 % 0.00 in
03:22 75.6 °F 74.7 °F 29.91 in NNW 1.0 mph 1.0 mph 97 % 0.00 in
03:27 75.7 °F 75.2 °F 29.91 in NW 1.0 mph 2.0 mph 98 % 0.00 in
03:32 75.9 °F 75.4 °F 29.91 in NW 2.0 mph 4.0 mph 98 % 0.00 in
03:37 75.9 °F 75.4 °F 29.91 in WNW 1.0 mph 4.0 mph 98 % 0.00 in
03:47 75.9 °F 75.0 °F 29.92 in Calm   3.0 mph 97 % 0.00 in
03:52 75.7 °F 74.8 °F 29.92 in Calm   2.0 mph 97 % 0.00 in
03:57 75.7 °F 74.8 °F 29.92 in Calm   1.0 mph 97 % 0.00 in
04:02 75.7 °F 75.2 °F 29.92 in NW 1.0 mph 1.0 mph 98 % 0.00 in
04:07 75.7 °F 74.8 °F 29.92 in Calm   1.0 mph 97 % 0.00 in
04:12 75.6 °F 75.0 °F 29.93 in Calm   1.0 mph 98 % 0.00 in
04:17 75.6 °F 75.0 °F 29.93 in NW 1.0 mph 2.0 mph 98 % 0.00 in
04:22 75.6 °F 75.0 °F 29.93 in Calm   2.0 mph 98 % 0.00 in
04:27 75.6 °F 75.0 °F 29.93 in WNW 1.0 mph 2.0 mph 98 % 0.00 in
04:33 75.6 °F 75.0 °F 29.94 in NW 2.0 mph 2.0 mph 98 % 0.00 in
04:38 75.7 °F 75.2 °F 29.94 in Calm   3.0 mph 98 % 0.00 in
04:43 75.7 °F 75.2 °F 29.94 in Calm   3.0 mph 98 % 0.00 in
04:48 75.7 °F 75.2 °F 29.94 in WNW 1.0 mph 3.0 mph 98 % 0.00 in
04:53 75.7 °F 75.2 °F 29.94 in Calm   3.0 mph 98 % 0.00 in
04:58 75.7 °F 75.2 °F 29.94 in NW 1.0 mph 2.0 mph 98 % 0.00 in
05:03 75.7 °F 75.2 °F 29.94 in NW 1.0 mph 2.0 mph 98 % 0.00 in
05:08 75.6 °F 75.0 °F 29.94 in NW 1.0 mph 2.0 mph 98 % 0.00 in
05:13 75.6 °F 75.0 °F 29.94 in Calm   2.0 mph 98 % 0.00 in
05:18 75.6 °F 75.0 °F 29.94 in Calm   2.0 mph 98 % 0.00 in
05:23 75.6 °F 75.0 °F 29.94 in Calm   1.0 mph 98 % 0.00 in
05:28 75.4 °F 74.8 °F 29.94 in Calm   1.0 mph 98 % 0.00 in
05:33 75.4 °F 74.8 °F 29.95 in Calm   2.0 mph 98 % 0.00 in
05:38 75.4 °F 74.8 °F 29.95 in Calm   2.0 mph 98 % 0.00 in
05:43 75.2 °F 74.7 °F 29.95 in NW 1.0 mph 2.0 mph 98 % 0.00 in
05:48 75.4 °F 74.8 °F 29.95 in NW 1.0 mph 3.0 mph 98 % 0.00 in
05:53 75.4 °F 74.8 °F 29.95 in NW 1.0 mph 3.0 mph 98 % 0.00 in
06:03 75.2 °F 74.7 °F 29.95 in Calm   2.0 mph 98 % 0.00 in
06:08 75.0 °F 74.5 °F 29.96 in Calm   2.0 mph 98 % 0.00 in
06:13 75.0 °F 74.5 °F 29.96 in Calm   2.0 mph 98 % 0.00 in
06:18 75.0 °F 74.5 °F 29.96 in Calm   1.0 mph 98 % 0.00 in
06:23 75.0 °F 74.5 °F 29.96 in Calm   1.0 mph 98 % 0.00 in
06:28 75.0 °F 74.5 °F 29.96 in NW 1.0 mph 1.0 mph 98 % 0.00 in
06:34 74.8 °F 74.3 °F 29.97 in Calm   1.0 mph 98 % 0.00 in
06:39 74.8 °F 74.3 °F 29.97 in Calm   1.0 mph 98 % 0.00 in
06:44 74.8 °F 74.3 °F 29.97 in Calm   2.0 mph 98 % 0.00 in
06:49 74.8 °F 74.3 °F 29.97 in Calm   2.0 mph 98 % 0.00 in
06:54 74.8 °F 74.5 °F 29.97 in NW 1.0 mph 2.0 mph 99 % 0.00 in
06:59 74.8 °F 74.5 °F 29.98 in Calm   1.0 mph 99 % 0.00 in
07:04 74.8 °F 74.5 °F 29.98 in Calm   1.0 mph 99 % 0.00 in
07:09 75.0 °F 74.7 °F 29.98 in WNW 2.0 mph 2.0 mph 99 % 0.00 in
07:14 75.2 °F 74.8 °F 29.98 in WNW 1.0 mph 3.0 mph 99 % 0.00 in
07:19 75.4 °F 75.0 °F 29.99 in NW 2.0 mph 3.0 mph 99 % 0.00 in
07:24 75.6 °F 75.2 °F 29.99 in WNW 4.0 mph 4.0 mph 99 % 0.00 in
07:29 75.6 °F 75.0 °F 29.99 in NW 5.0 mph 6.0 mph 98 % 0.00 in
07:31 75.4 °F 74.8 °F 29.99 in NW 3.0 mph 8.0 mph 98 % 0.00 in
07:36 75.4 °F 74.5 °F 29.99 in NW 4.0 mph 8.0 mph 97 % 0.00 in
07:41 75.2 °F 74.3 °F 30.00 in NW 3.0 mph 8.0 mph 97 % 0.00 in
07:46 75.0 °F 73.8 °F 30.00 in WNW 7.0 mph 12.0 mph 96 % 0.00 in
07:51 75.0 °F 73.4 °F 30.00 in NNW 5.0 mph 12.0 mph 95 % 0.00 in
07:56 74.8 °F 73.0 °F 30.01 in NNW 6.0 mph 12.0 mph 94 % 0.00 in
08:01 74.5 °F 70.7 °F 30.01 in NW 10.0 mph 12.0 mph 88 % 0.00 in
08:06 74.1 °F 68.9 °F 30.01 in NW 5.0 mph 12.0 mph 84 % 0.00 in
08:11 73.9 °F 68.4 °F 30.02 in WNW 3.0 mph 12.0 mph 83 % 0.00 in
08:16 73.9 °F 68.7 °F 30.02 in NW 8.0 mph 12.0 mph 84 % 0.00 in
08:21 73.8 °F 66.9 °F 30.02 in WNW 7.0 mph 14.0 mph 79 % 0.00 in
08:26 73.6 °F 65.8 °F 30.03 in WNW 5.0 mph 14.0 mph 77 % 0.00 in
08:31 73.6 °F 66.4 °F 30.02 in WNW 7.0 mph 14.0 mph 78 % 0.00 in
08:36 73.6 °F 65.8 °F 30.03 in WNW 6.0 mph 14.0 mph 77 % 0.00 in
08:41 73.4 °F 65.3 °F 30.03 in WNW 5.0 mph 14.0 mph 76 % 0.00 in
08:51 73.4 °F 65.3 °F 30.03 in West 4.0 mph 13.0 mph 76 % 0.00 in
08:56 73.4 °F 65.3 °F 30.04 in WNW 4.0 mph 13.0 mph 76 % 0.00 in
09:01 73.2 °F 64.8 °F 30.04 in NW 7.0 mph 12.0 mph 75 % 0.00 in
09:07 73.2 °F 64.4 °F 30.04 in NNW 11.0 mph 16.0 mph 74 % 0.00 in
09:12 73.0 °F 64.6 °F 30.05 in NW 3.0 mph 16.0 mph 75 % 0.00 in
09:17 72.9 °F 64.4 °F 30.05 in WNW 5.0 mph 16.0 mph 75 % 0.00 in
09:22 72.7 °F 63.9 °F 30.05 in NW 7.0 mph 14.0 mph 74 % 0.00 in
09:27 72.0 °F 63.1 °F 30.05 in WNW 12.0 mph 15.0 mph 74 % 0.00 in
09:32 71.2 °F 63.0 °F 30.05 in WNW 7.0 mph 15.0 mph 75 % 0.00 in
09:37 71.1 °F 62.8 °F 30.06 in NW 11.0 mph 15.0 mph 75 % 0.00 in
09:42 71.1 °F 62.8 °F 30.05 in NW 7.0 mph 16.0 mph 75 % 0.00 in
09:47 71.4 °F 63.1 °F 30.06 in NW 9.0 mph 16.0 mph 75 % 0.00 in
09:52 71.6 °F 63.3 °F 30.06 in NNW 3.0 mph 16.0 mph 75 % 0.00 in
09:57 71.4 °F 62.8 °F 30.06 in NW 7.0 mph 15.0 mph 74 % 0.00 in
10:02 71.2 °F 62.6 °F 30.07 in North 5.0 mph 12.0 mph 74 % 0.00 in
10:07 71.1 °F 62.4 °F 30.07 in NNW 7.0 mph 12.0 mph 74 % 0.00 in
10:12 70.9 °F 62.6 °F 30.07 in NW 4.0 mph 12.0 mph 75 % 0.00 in
10:17 70.9 °F 62.6 °F 30.07 in WNW 7.0 mph 12.0 mph 75 % 0.00 in
10:22 71.1 °F 62.8 °F 30.07 in NW 5.0 mph 12.0 mph 75 % 0.00 in
10:24 71.1 °F 62.8 °F 30.07 in NW 8.0 mph 12.0 mph 75 % 0.00 in
10:29 71.6 °F 62.4 °F 30.07 in NNW 10.0 mph 12.0 mph 73 % 0.00 in
10:34 71.4 °F 62.2 °F 30.07 in WNW 5.0 mph 16.0 mph 73 % 0.00 in
10:39 71.6 °F 62.1 °F 30.07 in WNW 7.0 mph 16.0 mph 72 % 0.00 in
10:44 71.2 °F 61.7 °F 30.08 in NW 8.0 mph 16.0 mph 72 % 0.00 in
10:49 71.1 °F 61.9 °F 30.07 in North 5.0 mph 14.0 mph 73 % 0.00 in
10:54 71.4 °F 62.2 °F 30.07 in NNW 4.0 mph 14.0 mph 73 % 0.00 in
10:59 71.6 °F 62.4 °F 30.07 in WNW 5.0 mph 14.0 mph 73 % 0.00 in
11:04 71.6 °F 62.1 °F 30.07 in NNW 7.0 mph 13.0 mph 72 % 0.00 in
11:09 71.8 °F 62.2 °F 30.08 in NNW 6.0 mph 12.0 mph 72 % 0.00 in
11:19 72.1 °F 62.6 °F 30.07 in NNW 5.0 mph 12.0 mph 72 % 0.00 in
11:24 72.9 °F 63.0 °F 30.07 in WNW 9.0 mph 12.0 mph 71 % 0.00 in
11:29 73.2 °F 62.4 °F 30.07 in NW 7.0 mph 14.0 mph 69 % 0.00 in
11:34 73.0 °F 62.2 °F 30.08 in NW 6.0 mph 15.0 mph 69 % 0.00 in
11:39 73.6 °F 63.1 °F 30.08 in NNW 5.0 mph 15.0 mph 70 % 0.00 in
11:44 73.6 °F 62.8 °F 30.08 in WNW 6.0 mph 15.0 mph 69 % 0.00 in
11:54 74.5 °F 63.1 °F 30.08 in NNW 7.0 mph 12.0 mph 68 % 0.00 in
11:59 74.5 °F 63.1 °F 30.08 in NW 4.0 mph 12.0 mph 68 % 0.00 in
12:04 75.4 °F 63.1 °F 30.08 in NNW 8.0 mph 11.0 mph 66 % 0.00 in
12:09 75.0 °F 62.4 °F 30.08 in NNW 3.0 mph 11.0 mph 65 % 0.00 in
12:14 74.7 °F 62.6 °F 30.09 in NW 8.0 mph 11.0 mph 66 % 0.00 in
12:19 74.8 °F 62.8 °F 30.09 in NW 3.0 mph 13.0 mph 66 % 0.00 in
12:24 74.7 °F 62.1 °F 30.09 in NNW 10.0 mph 14.0 mph 65 % 0.00 in
12:29 74.1 °F 61.5 °F 30.09 in NW 4.0 mph 14.0 mph 65 % 0.00 in
12:34 74.3 °F 62.6 °F 30.09 in NW 10.0 mph 14.0 mph 67 % 0.00 in
12:39 74.3 °F 61.7 °F 30.09 in NW 9.0 mph 14.0 mph 65 % 0.00 in
12:44 74.5 °F 62.4 °F 30.09 in NW 5.0 mph 14.0 mph 66 % 0.00 in
12:50 75.0 °F 63.3 °F 30.09 in West 3.0 mph 14.0 mph 67 % 0.00 in
12:55 75.2 °F 63.1 °F 30.08 in North 3.0 mph 14.0 mph 66 % 0.00 in
13:00 75.2 °F 63.1 °F 30.07 in NNW 4.0 mph 13.0 mph 66 % 0.00 in
13:05 75.2 °F 62.6 °F 30.07 in NNW 10.0 mph 13.0 mph 65 % 0.00 in
13:10 75.2 °F 62.6 °F 30.08 in North 7.0 mph 13.0 mph 65 % 0.00 in
13:15 75.0 °F 62.1 °F 30.08 in NW 8.0 mph 15.0 mph 64 % 0.00 in
13:20 74.7 °F 61.7 °F 30.08 in WNW 8.0 mph 15.0 mph 64 % 0.00 in
13:25 74.7 °F 62.6 °F 30.08 in NNW 6.0 mph 14.0 mph 66 % 0.00 in
13:30 74.7 °F 62.1 °F 30.08 in NNW 3.0 mph 14.0 mph 65 % 0.00 in
13:35 74.5 °F 62.4 °F 30.08 in WNW 8.0 mph 14.0 mph 66 % 0.00 in
13:40 74.7 °F 62.6 °F 30.08 in NNW 6.0 mph 13.0 mph 66 % 0.00 in
13:45 75.0 °F 62.4 °F 30.08 in NW 5.0 mph 12.0 mph 65 % 0.00 in
13:50 74.8 °F 62.2 °F 30.08 in NNW 4.0 mph 11.0 mph 65 % 0.00 in
13:55 74.8 °F 62.2 °F 30.08 in NNW 7.0 mph 10.0 mph 65 % 0.00 in
14:00 74.8 °F 62.2 °F 30.08 in NW 4.0 mph 10.0 mph 65 % 0.00 in
14:05 75.0 °F 63.0 °F 30.08 in NW 5.0 mph 10.0 mph 66 % 0.00 in
14:10 75.0 °F 62.4 °F 30.08 in NW 4.0 mph 11.0 mph 65 % 0.00 in
14:15 75.4 °F 62.8 °F 30.07 in NW 5.0 mph 11.0 mph 65 % 0.00 in
14:20 75.4 °F 62.8 °F 30.07 in NW 4.0 mph 11.0 mph 65 % 0.00 in
14:25 75.0 °F 62.4 °F 30.07 in WNW 7.0 mph 11.0 mph 65 % 0.00 in
14:30 75.0 °F 62.4 °F 30.07 in NNW 7.0 mph 9.0 mph 65 % 0.00 in
14:35 75.4 °F 62.8 °F 30.07 in NW 8.0 mph 9.0 mph 65 % 0.00 in
14:40 75.2 °F 62.6 °F 30.07 in North 7.0 mph 9.0 mph 65 % 0.00 in
14:45 75.0 °F 62.4 °F 30.06 in WNW 7.0 mph 11.0 mph 65 % 0.00 in
14:50 75.2 °F 62.6 °F 30.06 in NW 4.0 mph 11.0 mph 65 % 0.00 in
14:55 75.0 °F 62.1 °F 30.06 in WNW 6.0 mph 11.0 mph 64 % 0.00 in
15:00 75.0 °F 63.0 °F 30.06 in North 6.0 mph 11.0 mph 66 % 0.00 in
15:05 75.2 °F 62.2 °F 30.06 in WSW 5.0 mph 11.0 mph 64 % 0.00 in
15:11 75.4 °F 63.1 °F 30.06 in NW 3.0 mph 11.0 mph 66 % 0.00 in
15:16 75.6 °F 63.3 °F 30.06 in WNW 3.0 mph 11.0 mph 66 % 0.00 in
15:21 75.4 °F 62.4 °F 30.06 in NNW 5.0 mph 9.0 mph 64 % 0.00 in
15:26 75.6 °F 63.3 °F 30.06 in NW 3.0 mph 10.0 mph 66 % 0.00 in
15:31 75.9 °F 63.3 °F 30.06 in NNW 5.0 mph 10.0 mph 65 % 0.00 in
15:36 75.9 °F 63.3 °F 30.06 in WNW 1.0 mph 10.0 mph 65 % 0.00 in
15:41 75.9 °F 62.8 °F 30.05 in NW 3.0 mph 10.0 mph 64 % 0.00 in
15:46 76.3 °F 63.7 °F 30.05 in NNW 7.0 mph 10.0 mph 65 % 0.00 in
15:51 76.5 °F 63.3 °F 30.06 in WNW 6.0 mph 10.0 mph 64 % 0.00 in
15:56 76.5 °F 63.0 °F 30.05 in NW 5.0 mph 11.0 mph 63 % 0.00 in
16:01 76.5 °F 63.0 °F 30.05 in NNW 5.0 mph 11.0 mph 63 % 0.00 in
16:06 76.3 °F 63.1 °F 30.05 in NNW 5.0 mph 11.0 mph 64 % 0.00 in
16:11 76.5 °F 63.3 °F 30.05 in NW 5.0 mph 10.0 mph 64 % 0.00 in
16:16 76.8 °F 63.3 °F 30.05 in West 5.0 mph 10.0 mph 63 % 0.00 in
16:21 77.2 °F 63.7 °F 30.05 in NW 4.0 mph 10.0 mph 63 % 0.00 in
16:26 77.4 °F 63.3 °F 30.05 in NW 3.0 mph 10.0 mph 62 % 0.00 in
16:28 77.4 °F 62.8 °F 30.05 in NNW 6.0 mph 10.0 mph 61 % 0.00 in
16:33 77.5 °F 63.5 °F 30.05 in NW 5.0 mph 10.0 mph 62 % 0.00 in
16:38 77.2 °F 63.1 °F 30.05 in WNW 6.0 mph 10.0 mph 62 % 0.00 in
16:43 77.0 °F 63.5 °F 30.05 in NW 4.0 mph 10.0 mph 63 % 0.00 in
16:48 77.2 °F 63.7 °F 30.05 in NW 3.0 mph 9.0 mph 63 % 0.00 in
16:53 77.0 °F 63.5 °F 30.05 in NW 4.0 mph 9.0 mph 63 % 0.00 in
16:58 77.0 °F 63.5 °F 30.05 in NW 4.0 mph 8.0 mph 63 % 0.00 in
17:02 76.8 °F 62.8 °F 30.05 in NW 3.0 mph 7.0 mph 62 % 0.00 in
17:07 76.8 °F 63.3 °F 30.05 in NW 4.0 mph 7.0 mph 63 % 0.00 in
17:12 77.2 °F 63.7 °F 30.05 in NW 5.0 mph 7.0 mph 63 % 0.00 in
17:17 76.8 °F 63.3 °F 30.05 in NNW 3.0 mph 8.0 mph 63 % 0.00 in
17:22 76.8 °F 63.3 °F 30.05 in NNW 2.0 mph 8.0 mph 63 % 0.00 in
17:27 76.8 °F 63.3 °F 30.05 in NNW 4.0 mph 9.0 mph 63 % 0.00 in
17:32 76.6 °F 62.6 °F 30.05 in North 4.0 mph 9.0 mph 62 % 0.00 in
17:37 76.6 °F 63.5 °F 30.05 in NW 3.0 mph 9.0 mph 64 % 0.00 in
17:42 76.5 °F 63.0 °F 30.05 in WNW 5.0 mph 8.0 mph 63 % 0.00 in
17:47 76.5 °F 63.3 °F 30.05 in NW 3.0 mph 8.0 mph 64 % 0.00 in
17:52 76.3 °F 63.1 °F 30.05 in WNW 4.0 mph 7.0 mph 64 % 0.00 in
17:57 76.3 °F 62.8 °F 30.05 in North 3.0 mph 7.0 mph 63 % 0.00 in
18:02 76.1 °F 63.0 °F 30.05 in WNW 2.0 mph 7.0 mph 64 % 0.00 in
18:07 75.9 °F 62.8 °F 30.05 in NNW 2.0 mph 8.0 mph 64 % 0.00 in
18:12 75.7 °F 63.1 °F 30.06 in NNW 1.0 mph 8.0 mph 65 % 0.00 in
18:17 75.7 °F 63.1 °F 30.06 in West 1.0 mph 8.0 mph 65 % 0.00 in
18:22 75.6 °F 63.0 °F 30.05 in NNW 3.0 mph 7.0 mph 65 % 0.00 in
18:27 75.4 °F 62.8 °F 30.06 in NNW 2.0 mph 7.0 mph 65 % 0.00 in
18:32 75.2 °F 63.1 °F 30.05 in NW 1.0 mph 5.0 mph 66 % 0.00 in
18:37 75.0 °F 63.0 °F 30.05 in NW 2.0 mph 7.0 mph 66 % 0.00 in
18:42 75.0 °F 63.0 °F 30.06 in NW 2.0 mph 7.0 mph 66 % 0.00 in
18:47 74.8 °F 62.8 °F 30.06 in WNW 3.0 mph 7.0 mph 66 % 0.00 in
18:52 74.8 °F 62.8 °F 30.06 in West 3.0 mph 7.0 mph 66 % 0.00 in
18:57 74.5 °F 62.4 °F 30.06 in NW 4.0 mph 6.0 mph 66 % 0.00 in
19:02 74.1 °F 62.1 °F 30.06 in NW 2.0 mph 7.0 mph 66 % 0.00 in
19:07 73.9 °F 61.9 °F 30.06 in NW 9.0 mph 9.0 mph 66 % 0.00 in
19:12 73.2 °F 60.8 °F 30.07 in NW 7.0 mph 10.0 mph 65 % 0.00 in
19:17 72.9 °F 60.4 °F 30.07 in NNW 4.0 mph 10.0 mph 65 % 0.00 in
19:22 72.9 °F 60.8 °F 30.07 in NW 4.0 mph 10.0 mph 66 % 0.00 in
19:27 72.9 °F 61.3 °F 30.08 in NW 5.0 mph 9.0 mph 67 % 0.00 in
19:32 72.7 °F 61.2 °F 30.08 in NNW 3.0 mph 9.0 mph 67 % 0.00 in
19:37 72.3 °F 60.8 °F 30.07 in NW 3.0 mph 8.0 mph 67 % 0.00 in
19:43 72.3 °F 60.3 °F 30.08 in WNW 3.0 mph 9.0 mph 66 % 0.00 in
19:48 72.1 °F 60.6 °F 30.08 in North 7.0 mph 10.0 mph 67 % 0.00 in
19:53 71.8 °F 59.7 °F 30.08 in SW 4.0 mph 10.0 mph 66 % 0.00 in
19:58 71.8 °F 59.7 °F 30.08 in WNW 1.0 mph 10.0 mph 66 % 0.00 in
20:03 71.6 °F 59.7 °F 30.08 in NW 4.0 mph 10.0 mph 66 % 0.00 in
20:08 71.8 °F 59.7 °F 30.08 in WNW 3.0 mph 9.0 mph 66 % 0.00 in
20:13 71.8 °F 59.7 °F 30.08 in NW 4.0 mph 9.0 mph 66 % 0.00 in
20:18 71.6 °F 59.7 °F 30.09 in NW 4.0 mph 9.0 mph 66 % 0.00 in
20:23 71.4 °F 59.9 °F 30.09 in NW 4.0 mph 8.0 mph 67 % 0.00 in
20:28 71.4 °F 59.9 °F 30.09 in West 3.0 mph 8.0 mph 67 % 0.00 in
20:33 71.4 °F 59.9 °F 30.09 in WNW 2.0 mph 9.0 mph 67 % 0.00 in
20:38 71.2 °F 59.7 °F 30.10 in NW 2.0 mph 9.0 mph 67 % 0.00 in
20:43 71.2 °F 59.7 °F 30.10 in NW 3.0 mph 9.0 mph 67 % 0.00 in
20:48 71.2 °F 60.1 °F 30.10 in NW 3.0 mph 7.0 mph 68 % 0.00 in
20:53 71.1 °F 59.9 °F 30.09 in NNW 4.0 mph 7.0 mph 68 % 0.00 in
20:58 71.1 °F 59.9 °F 30.09 in NNW 6.0 mph 7.0 mph 68 % 0.00 in
21:03 71.1 °F 59.9 °F 30.09 in NNW 7.0 mph 7.0 mph 68 % 0.00 in
21:08 70.9 °F 60.3 °F 30.10 in NNW 8.0 mph 8.0 mph 69 % 0.00 in
21:13 70.7 °F 60.1 °F 30.09 in NNW 2.0 mph 10.0 mph 69 % 0.00 in
21:18 70.5 °F 59.9 °F 30.10 in WNW 5.0 mph 10.0 mph 69 % 0.00 in
21:20 70.5 °F 59.9 °F 30.10 in NNW 5.0 mph 11.0 mph 69 % 0.00 in
21:25 70.2 °F 58.6 °F 30.10 in NNW 5.0 mph 14.0 mph 67 % 0.00 in
21:30 70.2 °F 58.3 °F 30.11 in WNW 6.0 mph 14.0 mph 66 % 0.00 in
21:35 69.8 °F 57.9 °F 30.11 in North 8.0 mph 14.0 mph 66 % 0.00 in
21:40 69.6 °F 57.4 °F 30.11 in WNW 4.0 mph 14.0 mph 65 % 0.00 in
21:45 69.4 °F 57.6 °F 30.11 in WNW 2.0 mph 14.0 mph 66 % 0.00 in
21:50 69.3 °F 57.4 °F 30.11 in North 2.0 mph 14.0 mph 66 % 0.00 in
21:55 69.3 °F 57.4 °F 30.11 in WNW 3.0 mph 14.0 mph 66 % 0.00 in
22:00 69.3 °F 57.4 °F 30.11 in West 1.0 mph 11.0 mph 66 % 0.00 in
22:05 69.1 °F 57.2 °F 30.12 in WNW 3.0 mph 11.0 mph 66 % 0.00 in
22:11 69.1 °F 57.2 °F 30.12 in North 6.0 mph 9.0 mph 66 % 0.00 in
22:16 68.7 °F 56.8 °F 30.12 in NNW 4.0 mph 12.0 mph 66 % 0.00 in
22:21 68.5 °F 56.7 °F 30.12 in North 6.0 mph 12.0 mph 66 % 0.00 in
22:24 68.5 °F 56.7 °F 30.12 in NW 4.0 mph 12.0 mph 66 % 0.00 in
22:26 68.5 °F 57.2 °F 30.12 in NW 2.0 mph 12.0 mph 67 % 0.00 in
22:28 68.5 °F 56.7 °F 30.12 in West 4.0 mph 12.0 mph 66 % 0.00 in
22:33 68.4 °F 57.0 °F 30.12 in NW 7.0 mph 11.0 mph 67 % 0.00 in
22:38 68.4 °F 57.0 °F 30.12 in NW 3.0 mph 11.0 mph 67 % 0.00 in
22:43 68.2 °F 56.8 °F 30.12 in NNW 4.0 mph 11.0 mph 67 % 0.00 in
22:48 68.2 °F 56.8 °F 30.12 in WNW 3.0 mph 11.0 mph 67 % 0.00 in
22:53 68.2 °F 56.8 °F 30.12 in NW 4.0 mph 10.0 mph 67 % 0.00 in
22:58 68.2 °F 56.8 °F 30.12 in NE 1.0 mph 10.0 mph 67 % 0.00 in
23:03 68.0 °F 56.3 °F 30.12 in WNW 3.0 mph 8.0 mph 66 % 0.00 in
23:08 67.8 °F 56.1 °F 30.12 in NW 7.0 mph 8.0 mph 66 % 0.00 in
23:13 67.8 °F 56.1 °F 30.12 in NW 1.0 mph 10.0 mph 66 % 0.00 in
23:18 67.8 °F 56.1 °F 30.12 in North 6.0 mph 11.0 mph 66 % 0.00 in
23:23 67.8 °F 56.1 °F 30.12 in WNW 3.0 mph 11.0 mph 66 % 0.00 in
23:28 67.8 °F 56.1 °F 30.12 in WNW 3.0 mph 11.0 mph 66 % 0.00 in
23:33 67.6 °F 55.9 °F 30.11 in NNW 4.0 mph 10.0 mph 66 % 0.00 in
23:38 67.6 °F 55.9 °F 30.11 in WNW 2.0 mph 9.0 mph 66 % 0.00 in
23:43 67.5 °F 55.8 °F 30.11 in NW 7.0 mph 8.0 mph 66 % 0.00 in
23:53 67.3 °F 55.6 °F 30.11 in NW 2.0 mph 9.0 mph 66 % 0.00 in
23:58 67.5 °F 55.8 °F 30.11 in WNW 2.0 mph 9.0 mph 66 % 0.00 in
Spring, Texas: Villages of Bridgestone
Compliments of Weather Underground - 2.75 mb

Script developed by  Jim McMurry - jmcmurry@mwt.net Adapted for the template by  Wim van der Kuil - Leuven-Template.eu

You find our weather info also at:

UK Metoffice

WeatherCloud

Weather Underground

Mid-South Weather Network

AWEKAS

Citizen Weather Observer Program (CWOP)

HAMweather, WeatherForYou, PWS Weather

Equipment we use:

Weather-station
Davis Vantage Vue

Weather-program
Meteohub

Weather-server
Debian 7.9 x86 (Guest)

Provider
DreamHost

Davis Vantage Vue

Meteohub

Debian 7.9 x86 (Guest)

DreamHost